Terminal Aerodrome Forecast
Issued by NWS

Home | Current Version | Previous Version | Text Only | Print | Product List | Glossary On
Versions: 1 2 3 4 5 6 7 8 9 10 11 12 13 14 15 16 17 18
000
FTAK31 PANC 231311 AAA
TAFADU
TAF AMD
PADU 231311Z 2313/2412 VRB03KT P6SM VCSH BKN015 OVC025
      TEMPO 2313/2316 SCT015 BKN035
     FM232000 18006KT P6SM BKN040 OVC120=

USA.gov is the U.S. government's official web portal to all federal, state and local government web resources and services.